Flight Track Log - Related Links

Times and Time Zones

All times are in EDT time to prevent confusion due to time zone crossing. See the EJA996 flight status page for this flight to view local times or setup timezone preferences in your user account.


Time Position Orientation Groundspeed Altitude Reporting Facility
EDT Latitude Longitude Course Direction KTS MPH feet Rate Location/Type
Mon 01:05:13 PM 37.8097 -80.4047 128° Southeast 440 506 5,900  Level Washington Center
Mon 01:06:13 PM 37.7447 -80.3586 151° Southeast 349 402 9,200 3,421 Climbing Washington Center
Mon 01:07:14 PM 37.6697 -80.3067 151° Southeast 320 368 12,800 3,227 Climbing Washington Center
Mon 01:08:00 PM 37.2900 -79.9973 128° Southeast  Level FlightAware Approximate
Mon 01:08:12 PM 37.5744 -80.2378 150° Southeast 328 377 15,600  Level Washington Center
Mon 01:09:13 PM 37.4728 -80.1636 150° Southeast 379 436 17,000 689 Climbing Washington Center
Mon 01:10:14 PM 37.3589 -80.0861 152° Southeast 428 493 17,000  Level Washington Center
Mon 01:11:14 PM 37.2817 -79.9772 132° Southeast 459 528 17,000  Level Washington Center
Mon 01:12:12 PM 37.1986 -79.8497 129° Southeast 459 528 17,000  Level Washington Center
Mon 01:13:12 PM 37.1197 -79.7203 127° Southeast 464 534 17,000  Level Washington Center
Mon 01:14:13 PM 37.0328 -79.5806 128° Southeast 464 534 17,000  Level Washington Center
Mon 01:15:14 PM 36.9514 -79.4514 128° Southeast 464 534 17,000  Level Washington Center
Mon 01:16:12 PM 36.8739 -79.3256 128° Southeast 464 534 17,000  Level Washington Center
Mon 01:17:13 PM 36.8003 -79.2131 129° Southeast 464 534 17,000  Level Washington Center
Mon 01:18:14 PM 36.7286 -79.0956 127° Southeast 452 520 17,000 -298 Level Washington Center
Mon 01:19:14 PM 36.6519 -79.0094 138° Southeast 412 474 16,400 -966 Descending Washington Center
Mon 01:19:41 PM 36.5961 -78.9939 167° South 348 400 15,600 -1,966 Descending Washington Center
Mon 01:20:12 PM 36.5547 -78.9817 167° South 359 413 14,500 -2,509 Descending Washington Center
Mon 01:20:36 PM 36.5069 -78.9719 171° South 353 406 13,300 -2,200 Descending Washington Center
Mon 01:21:12 PM 36.4594 -78.9519 161° South 359 413 12,300 -1,600 Descending Washington Center
Mon 01:21:36 PM 36.4117 -78.9419 170° South 352 405 11,700 -1,500 Descending Washington Center
Mon 01:22:12 PM 36.3622 -78.9244 164° South 359 413 10,800 -1,574 Descending Washington Center
Mon 01:22:37 PM 36.3186 -78.9147 170° South 343 395 10,100 -787 Descending Washington Center
Mon 01:23:13 PM 36.2606 -78.8969 166° South 349 402 10,000 -98 Descending Washington Center
Mon 01:23:38 PM 36.2214 -78.8850 166° South 336 387 10,000  Level Washington Center
Mon 01:24:14 PM 36.1819 -78.8731 166° South 338 389 10,000 -400 Level Washington Center
Mon 01:24:38 PM 36.1386 -78.8636 170° South 294 338 9,600 -1,034 Descending Washington Center
Mon 01:25:12 PM 36.1056 -78.8519 164° South 308 354 9,000 -1,377 Descending Washington Center
Mon 01:25:39 PM 36.0639 -78.8450 172° South 254 292 8,200 -1,000 Descending Washington Center
Mon 01:26:12 PM 36.0389 -78.8414 173° South 276 318 8,000 -200 Descending Washington Center
Mon 01:26:39 PM 35.9992 -78.8450 184° South 227 261 8,000  Level Washington Center
Mon 01:27:13 PM 35.9719 -78.8464 182° South 248 285 8,000 -98 Level Washington Center
Mon 01:27:40 PM 35.9442 -78.8733 218° Southwest 232 267 7,900 -700 Descending Washington Center
Mon 01:28:13 PM 35.9186 -78.8928 212° Southwest 227 261 7,300 -1,869 Descending Washington Center
Mon 01:28:41 PM 35.8906 -78.9278 225° Southwest 224 258 6,000 -2,069 Descending Washington Center
Mon 01:29:11 PM 35.8753 -78.9475 226° Southwest 222 255 5,300 -1,770 Descending Washington Center
Mon 01:29:42 PM 35.8453 -78.9794 221° Southwest 223 257 4,200 -857 Descending Washington Center
Mon 01:30:42 PM 35.7931 -78.9825 183° South 234 269 4,000 -397 Descending Washington Center
Mon 01:31:43 PM 35.7864 -78.9156 97° East 208 239 3,400 -1,031 Descending Washington Center
Mon 01:32:50 PM 35.8278 -78.8608 47° Northeast 173 199 1,800 -1,172 Descending Washington Center
Mon 01:33:51 PM 35.8536 -78.8286 45° Northeast 145 167 900 -885 Descending Washington Center
Mon 01:35:00 PM 35.8667 -78.7833 49° Northeast  Level FlightAware Approximate
Mon 01:42:00 PM 35.8776 -78.7875 49° Northeast  Level Estimated
Mon 01:43:00 PM 35.8776 -78.7875 49° Northeast  Level Estimated
Mon 01:44:00 PM 35.8776 -78.7875 49° Northeast  Level Estimated
Mon 01:45:00 PM 35.8776 -78.7875 49° Northeast  Level Estimated

Login

Don't have an account? Register now (free) for customized features, flight alerts, and more!